Time;durP1;ratioP1;P1;durP2;ratioP2;P2;SDS_P1;SDS_P2;PMS_P1;PMS_P2;Temp;Humidity;BMP_temperature;BMP_pressure;BME280_temperature;BME280_humidity;BME280_pressure;Samples;Min_cycle;Max_cycle;Signal;HPM_P1;HPM_P2
2021/05/07 00:00:38;;;;;;;11.32;8.55;;;4.40;94.90;;;;;;4947149;28;20058;-73
2021/05/07 00:03:03;;;;;;;13.20;9.50;;;4.30;94.80;;;;;;4947021;28;20085;-72
2021/05/07 00:05:29;;;;;;;14.02;8.57;;;4.30;94.80;;;;;;4948431;28;20110;-73
2021/05/07 00:07:55;;;;;;;15.13;9.05;;;4.30;94.90;;;;;;4949235;28;20040;-71
2021/05/07 00:10:23;;;;;;;15.43;9.57;;;4.20;95.00;;;;;;4950034;28;20038;-73
2021/05/07 00:12:49;;;;;;;14.88;8.80;;;4.20;95.10;;;;;;4947224;28;20109;-72
2021/05/07 00:15:14;;;;;;;13.13;8.98;;;4.20;95.20;;;;;;4963588;28;20492;-71
2021/05/07 00:17:40;;;;;;;14.55;9.25;;;4.20;95.20;;;;;;4949273;28;20373;-72
2021/05/07 00:20:06;;;;;;;16.70;9.45;;;4.20;95.20;;;;;;4948526;28;20032;-72
2021/05/07 00:22:32;;;;;;;17.10;8.50;;;4.10;95.20;;;;;;4948364;28;20284;-72
2021/05/07 00:24:58;;;;;;;14.95;8.63;;;4.20;95.20;;;;;;4948539;28;20027;-72
2021/05/07 00:27:23;;;;;;;11.45;8.18;;;4.20;95.00;;;;;;4947967;28;20031;-72
2021/05/07 00:29:49;;;;;;;16.20;8.85;;;4.10;94.90;;;;;;4946604;28;20645;-72
2021/05/07 00:32:14;;;;;;;15.32;9.38;;;4.20;95.00;;;;;;4947409;28;20027;-73
2021/05/07 00:34:40;;;;;;;15.60;9.70;;;4.20;95.00;;;;;;4948786;28;20775;-72
2021/05/07 00:37:06;;;;;;;16.67;9.95;;;4.20;95.10;;;;;;4948990;28;20031;-71
2021/05/07 00:39:31;;;;;;;14.70;8.77;;;4.30;95.20;;;;;;4947268;28;20062;-72
2021/05/07 00:42:05;;;;;;;14.32;8.77;;;4.30;95.20;;;;;;4949312;28;20027;-72
2021/05/07 00:44:32;;;;;;;11.00;7.65;;;4.30;95.20;;;;;;4946554;28;20162;-72
2021/05/07 00:47:04;;;;;;;10.25;7.35;;;4.30;95.20;;;;;;4948008;28;20035;-73
2021/05/07 00:49:36;;;;;;;15.32;8.15;;;4.30;95.00;;;;;;4947221;28;20039;-72
2021/05/07 00:52:03;;;;;;;14.45;6.80;;;4.30;94.70;;;;;;4954299;28;20297;-72
2021/05/07 00:54:30;;;;;;;10.63;6.45;;;4.30;94.60;;;;;;4952566;28;20038;-73
2021/05/07 00:56:56;;;;;;;13.65;5.50;;;4.40;94.40;;;;;;4946327;28;20039;-72
2021/05/07 00:59:21;;;;;;;8.48;5.72;;;4.40;94.10;;;;;;4945776;28;20640;-72
2021/05/07 01:01:48;;;;;;;13.68;5.55;;;4.40;93.70;;;;;;4947957;28;20049;-72
2021/05/07 01:04:14;;;;;;;10.68;5.35;;;4.40;93.70;;;;;;4957150;28;20023;-72
2021/05/07 01:06:40;;;;;;;9.20;5.38;;;4.40;93.50;;;;;;4951811;28;20388;-73
2021/05/07 01:09:06;;;;;;;11.18;5.22;;;4.40;93.30;;;;;;4950028;28;20023;-72
2021/05/07 01:11:32;;;;;;;9.50;6.43;;;4.50;93.40;;;;;;4954258;28;20034;-72
2021/05/07 01:13:58;;;;;;;10.82;6.25;;;4.50;93.50;;;;;;4948613;28;20043;-71
2021/05/07 01:16:24;;;;;;;9.70;5.93;;;4.50;93.80;;;;;;4957911;28;20412;-72
2021/05/07 01:18:49;;;;;;;11.55;5.35;;;4.50;93.70;;;;;;4953463;28;20046;-72
2021/05/07 01:21:15;;;;;;;10.15;6.05;;;4.60;93.60;;;;;;4950485;28;20104;-72
2021/05/07 01:23:41;;;;;;;13.20;6.03;;;4.60;93.60;;;;;;4948827;28;20050;-72
2021/05/07 01:26:06;;;;;;;10.32;6.35;;;4.70;93.70;;;;;;4947679;28;20114;-74
2021/05/07 01:28:34;;;;;;;15.50;6.85;;;4.70;93.70;;;;;;4951333;28;20038;-72
2021/05/07 01:31:00;;;;;;;13.82;5.78;;;4.70;93.90;;;;;;4948376;28;20035;-70
2021/05/07 01:33:26;;;;;;;11.65;6.47;;;4.70;93.90;;;;;;4948702;28;20041;-72
2021/05/07 01:35:53;;;;;;;9.10;5.15;;;4.70;93.80;;;;;;4961614;28;20027;-72
2021/05/07 01:38:19;;;;;;;11.30;5.03;;;4.70;93.50;;;;;;4951279;28;20416;-71
2021/05/07 01:40:47;;;;;;;8.10;3.95;;;4.70;93.10;;;;;;4949630;28;20037;-71
2021/05/07 01:43:14;;;;;;;8.02;3.80;;;4.60;91.50;;;;;;4950429;28;20365;-72
2021/05/07 01:45:42;;;;;;;8.65;4.50;;;4.60;90.40;;;;;;4949107;28;20046;-72
2021/05/07 01:48:08;;;;;;;9.02;4.10;;;4.60;91.40;;;;;;4949214;28;20055;-72
2021/05/07 01:50:36;;;;;;;7.70;4.05;;;4.50;91.70;;;;;;4949356;28;20613;-72
2021/05/07 01:53:02;;;;;;;7.30;3.80;;;4.40;91.80;;;;;;4948408;28;20391;-72
2021/05/07 01:55:34;;;;;;;9.82;4.00;;;4.40;91.80;;;;;;4955478;28;20031;-72
2021/05/07 01:58:02;;;;;;;8.63;3.95;;;4.40;91.90;;;;;;4956983;28;20178;-71
2021/05/07 02:00:29;;;;;;;11.15;4.15;;;4.40;92.10;;;;;;4955869;28;20030;-72
2021/05/07 02:02:56;;;;;;;10.02;3.67;;;4.40;92.30;;;;;;4948799;28;20086;-71
2021/05/07 02:05:23;;;;;;;8.38;4.32;;;4.30;92.70;;;;;;4948224;28;20023;-73
2021/05/07 02:07:50;;;;;;;9.48;4.05;;;4.30;92.70;;;;;;4949567;28;20031;-72
2021/05/07 02:10:18;;;;;;;7.75;4.00;;;4.20;92.70;;;;;;4948193;28;20040;-73
2021/05/07 02:12:44;;;;;;;11.10;4.43;;;4.30;93.30;;;;;;4950750;28;20019;-75
2021/05/07 02:15:13;;;;;;;11.52;4.78;;;4.30;93.30;;;;;;4949384;28;20635;-73
2021/05/07 02:17:39;;;;;;;12.10;4.47;;;4.20;93.50;;;;;;4949599;28;20050;-73
2021/05/07 02:20:06;;;;;;;14.23;4.43;;;4.20;93.70;;;;;;4953589;28;20059;-73
2021/05/07 02:22:32;;;;;;;12.30;4.07;;;4.30;94.10;;;;;;4951113;28;20106;-70
2021/05/07 02:24:58;;;;;;;12.52;3.47;;;4.20;93.70;;;;;;4949114;28;20140;-73
2021/05/07 02:27:24;;;;;;;6.68;3.58;;;4.20;93.70;;;;;;4946412;28;20070;-71
2021/05/07 02:29:49;;;;;;;7.13;3.58;;;4.30;93.70;;;;;;4948084;28;20039;-74
2021/05/07 02:32:15;;;;;;;6.55;3.13;;;4.10;92.80;;;;;;4946205;28;20030;-73
2021/05/07 02:34:41;;;;;;;7.20;3.10;;;4.30;93.40;;;;;;4948544;28;20642;-71
2021/05/07 02:37:06;;;;;;;6.60;2.75;;;4.20;93.40;;;;;;4953907;28;20555;-72
2021/05/07 02:39:32;;;;;;;8.57;3.28;;;4.30;93.50;;;;;;4951231;28;20035;-72
2021/05/07 02:41:57;;;;;;;8.18;2.75;;;4.20;93.20;;;;;;4949103;28;20019;-72
2021/05/07 02:44:23;;;;;;;6.55;2.78;;;4.20;93.30;;;;;;4952859;28;20023;-72
2021/05/07 02:46:49;;;;;;;5.85;2.42;;;4.20;92.90;;;;;;4948475;28;20031;-72
2021/05/07 02:49:14;;;;;;;8.13;2.33;;;4.20;93.10;;;;;;4946820;28;20499;-73
2021/05/07 02:51:40;;;;;;;12.98;2.63;;;4.20;93.20;;;;;;4947563;28;20316;-72
2021/05/07 02:54:05;;;;;;;7.68;2.50;;;4.30;93.40;;;;;;4950006;28;20869;-72
2021/05/07 02:56:31;;;;;;;10.00;2.55;;;4.20;93.40;;;;;;4951273;28;20043;-74
2021/05/07 02:58:57;;;;;;;9.73;2.50;;;4.20;93.50;;;;;;4954567;28;20035;-72
2021/05/07 03:01:23;;;;;;;6.93;2.50;;;4.20;93.10;;;;;;4952376;28;20023;-72
2021/05/07 03:03:49;;;;;;;7.13;2.55;;;4.10;93.30;;;;;;4951425;28;20040;-72
2021/05/07 03:06:14;;;;;;;7.72;2.63;;;4.20;93.40;;;;;;4954018;28;20066;-72
2021/05/07 03:08:40;;;;;;;9.18;2.72;;;4.20;93.60;;;;;;4951739;28;20023;-71
2021/05/07 03:11:06;;;;;;;11.75;3.20;;;4.20;93.70;;;;;;4953718;28;20117;-72
2021/05/07 03:13:32;;;;;;;10.60;2.78;;;4.20;93.60;;;;;;4951149;28;20035;-72
2021/05/07 03:15:58;;;;;;;8.73;2.80;;;4.20;93.60;;;;;;4956484;28;20031;-72
2021/05/07 03:18:23;;;;;;;8.77;2.90;;;4.20;93.70;;;;;;4953908;28;20027;-72
2021/05/07 03:20:50;;;;;;;6.13;3.13;;;4.10;93.40;;;;;;4951192;28;20046;-72
2021/05/07 03:23:17;;;;;;;8.60;3.10;;;4.20;93.90;;;;;;4951068;28;20031;-72
2021/05/07 03:25:44;;;;;;;7.05;3.13;;;4.10;93.90;;;;;;4952467;28;20034;-73
2021/05/07 03:28:10;;;;;;;7.28;3.95;;;4.20;94.10;;;;;;4950263;28;20037;-72
2021/05/07 03:30:36;;;;;;;14.35;5.35;;;4.20;94.40;;;;;;4956856;28;20031;-72
2021/05/07 03:33:03;;;;;;;10.52;4.43;;;4.10;94.40;;;;;;4953853;28;20046;-72
2021/05/07 03:35:30;;;;;;;11.63;4.30;;;4.10;94.10;;;;;;4956276;28;20476;-72
2021/05/07 03:37:55;;;;;;;14.43;4.30;;;4.10;94.10;;;;;;4960732;28;20032;-72
2021/05/07 03:40:21;;;;;;;9.68;4.05;;;4.10;94.10;;;;;;4957786;28;20046;-71
2021/05/07 03:42:47;;;;;;;12.43;4.13;;;4.00;94.10;;;;;;4954488;28;20024;-72
2021/05/07 03:45:16;;;;;;;11.05;3.55;;;4.00;94.20;;;;;;4953780;28;20027;-73
2021/05/07 03:47:42;;;;;;;9.70;4.20;;;4.00;94.40;;;;;;4952838;28;20030;-73
2021/05/07 03:50:09;;;;;;;9.38;3.88;;;4.10;94.60;;;;;;4951620;28;20614;-71
2021/05/07 03:52:36;;;;;;;12.73;3.50;;;4.00;94.70;;;;;;4951784;28;20500;-72
2021/05/07 03:55:03;;;;;;;8.07;3.78;;;4.00;94.60;;;;;;4957406;28;20401;-71
2021/05/07 03:57:29;;;;;;;5.18;3.17;;;3.90;94.70;;;;;;4954446;28;20527;-73
2021/05/07 03:59:54;;;;;;;7.43;3.03;;;3.90;94.80;;;;;;4957316;28;20019;-72
2021/05/07 04:02:20;;;;;;;8.02;3.03;;;3.80;94.80;;;;;;4951134;28;20057;-72
2021/05/07 04:04:46;;;;;;;7.43;3.33;;;3.70;94.80;;;;;;4962851;28;20204;-72
2021/05/07 04:07:13;;;;;;;10.27;4.00;;;3.80;95.00;;;;;;4950512;28;20023;-72
2021/05/07 04:09:47;;;;;;;9.57;3.13;;;3.80;94.90;;;;;;4949725;28;20065;-72
2021/05/07 04:12:19;;;;;;;6.35;3.10;;;3.70;94.90;;;;;;4955853;28;20479;-71
2021/05/07 04:14:45;;;;;;;8.90;2.83;;;3.70;94.90;;;;;;4950429;28;20031;-71
2021/05/07 04:17:11;;;;;;;7.68;3.15;;;3.70;95.10;;;;;;4951978;28;20607;-73
2021/05/07 04:19:36;;;;;;;8.43;3.70;;;3.70;95.20;;;;;;4953461;28;20039;-72
2021/05/07 04:22:02;;;;;;;7.88;3.30;;;3.80;95.30;;;;;;4953767;28;20097;-72
2021/05/07 04:24:28;;;;;;;6.93;3.38;;;3.80;95.20;;;;;;4951051;28;20022;-71
2021/05/07 04:26:54;;;;;;;8.15;2.90;;;3.80;95.30;;;;;;4952030;28;20085;-72
2021/05/07 04:29:23;;;;;;;5.70;3.17;;;3.80;95.10;;;;;;4954288;28;20027;-72
2021/05/07 04:31:49;;;;;;;10.30;3.30;;;3.80;95.10;;;;;;4955055;28;20111;-73
2021/05/07 04:34:15;;;;;;;5.72;2.95;;;3.80;95.10;;;;;;4951267;28;20031;-72
2021/05/07 04:36:41;;;;;;;6.53;2.42;;;3.80;95.20;;;;;;4957114;28;20073;-73
2021/05/07 04:39:07;;;;;;;15.15;3.15;;;3.80;95.10;;;;;;4949608;28;20420;-73
2021/05/07 04:41:34;;;;;;;10.50;3.33;;;3.70;95.00;;;;;;4949461;28;20407;-72
2021/05/07 04:43:59;;;;;;;8.65;3.00;;;3.70;94.80;;;;;;4949068;28;20023;-73
2021/05/07 04:46:25;;;;;;;6.60;3.00;;;3.70;94.80;;;;;;4949184;28;20086;-73
2021/05/07 04:48:51;;;;;;;8.27;2.60;;;3.80;94.90;;;;;;4949971;28;20035;-72
2021/05/07 04:51:16;;;;;;;7.07;3.13;;;3.80;94.90;;;;;;4950904;28;20078;-72
2021/05/07 04:53:42;;;;;;;11.13;2.67;;;3.90;94.90;;;;;;4951390;28;20392;-72
2021/05/07 04:56:07;;;;;;;4.45;2.42;;;3.90;95.00;;;;;;4954318;28;20377;-72
2021/05/07 04:58:33;;;;;;;8.10;2.53;;;3.90;95.00;;;;;;4953221;28;20078;-72
2021/05/07 05:00:59;;;;;;;5.40;2.60;;;3.90;94.80;;;;;;4958311;28;20059;-72
2021/05/07 05:03:24;;;;;;;5.13;2.67;;;4.00;94.80;;;;;;4954578;28;20558;-73
2021/05/07 05:05:50;;;;;;;4.40;2.45;;;4.00;94.60;;;;;;4952176;28;20635;-72
2021/05/07 05:08:25;;;;;;;7.15;2.30;;;4.00;94.60;;;;;;4957876;28;20031;-73
2021/05/07 05:10:55;;;;;;;5.88;2.45;;;4.00;94.40;;;;;;4957428;28;20089;-73
2021/05/07 05:13:21;;;;;;;5.30;2.40;;;3.90;94.40;;;;;;4956002;28;20059;-73
2021/05/07 05:15:57;;;;;;;4.55;2.25;;;4.00;94.50;;;;;;4961535;28;20042;-73
2021/05/07 05:18:29;;;;;;;4.95;2.58;;;4.00;94.40;;;;;;4958298;28;20031;-73
2021/05/07 05:20:57;;;;;;;7.07;3.17;;;4.10;94.70;;;;;;4959969;28;20034;-71
2021/05/07 05:23:24;;;;;;;6.15;2.58;;;4.10;94.60;;;;;;4967842;28;20093;-73
2021/05/07 05:25:49;;;;;;;9.40;3.00;;;4.10;94.80;;;;;;4948591;28;20031;-72
2021/05/07 05:28:15;;;;;;;9.32;2.50;;;4.10;94.70;;;;;;4951256;28;20027;-74
2021/05/07 05:30:41;;;;;;;5.45;2.45;;;4.10;94.20;;;;;;4962501;28;20085;-75
2021/05/07 05:33:07;;;;;;;5.57;2.38;;;4.10;94.00;;;;;;4958490;28;20035;-71
2021/05/07 05:35:32;;;;;;;6.45;3.00;;;4.10;93.80;;;;;;4958555;28;20026;-73
2021/05/07 05:37:58;;;;;;;7.80;3.08;;;4.10;94.20;;;;;;4952888;28;20031;-73
2021/05/07 05:40:24;;;;;;;7.35;3.50;;;4.10;94.30;;;;;;4949315;28;20053;-73
2021/05/07 05:42:49;;;;;;;6.88;3.47;;;4.10;94.60;;;;;;4947938;28;20030;-72
2021/05/07 05:45:15;;;;;;;10.10;3.60;;;4.10;94.40;;;;;;4948182;28;20517;-73
2021/05/07 05:47:41;;;;;;;9.00;3.47;;;4.00;94.50;;;;;;4948363;28;20069;-72
2021/05/07 05:50:08;;;;;;;7.78;3.88;;;4.10;94.70;;;;;;4950017;29;20461;-72
2021/05/07 05:52:33;;;;;;;7.97;4.00;;;4.10;94.70;;;;;;4948764;28;20038;-72
2021/05/07 05:54:59;;;;;;;7.57;3.75;;;4.20;94.80;;;;;;4954120;28;20031;-72
2021/05/07 05:57:25;;;;;;;9.98;4.30;;;4.20;94.70;;;;;;4948980;28;20030;-73
2021/05/07 05:59:51;;;;;;;7.45;3.42;;;4.40;94.60;;;;;;4953546;28;20073;-72
2021/05/07 06:02:18;;;;;;;5.63;3.55;;;4.30;94.00;;;;;;4947369;28;20023;-75
2021/05/07 06:04:44;;;;;;;6.78;4.00;;;4.40;93.80;;;;;;4946843;28;20031;-72
2021/05/07 06:07:09;;;;;;;7.25;3.42;;;4.30;93.60;;;;;;4948405;28;20123;-73
2021/05/07 06:09:35;;;;;;;7.32;3.83;;;4.40;93.80;;;;;;4948712;28;20023;-73
2021/05/07 06:12:06;;;;;;;7.47;3.92;;;4.60;93.90;;;;;;4955574;28;20045;-72
2021/05/07 06:14:32;;;;;;;;;;;4.60;93.90;;;;;;4953870;28;20030;-70
2021/05/07 06:16:57;;;;;;;6.97;4.43;;;4.50;93.30;;;;;;4950194;28;20299;-69
2021/05/07 06:19:23;;;;;;;7.18;4.20;;;4.60;93.60;;;;;;4946959;29;20067;-68
2021/05/07 06:21:48;;;;;;;8.18;4.18;;;4.60;93.30;;;;;;4947621;28;20538;-70
2021/05/07 06:24:15;;;;;;;7.63;3.85;;;4.50;93.50;;;;;;4952484;28;20035;-68
2021/05/07 06:26:40;;;;;;;7.93;4.25;;;4.50;93.60;;;;;;4947740;28;20155;-69
2021/05/07 06:29:06;;;;;;;7.43;4.40;;;4.40;93.50;;;;;;4949441;28;20110;-70
2021/05/07 06:31:32;;;;;;;7.25;4.20;;;4.30;93.70;;;;;;4945358;28;20163;-70
2021/05/07 06:33:57;;;;;;;8.10;4.93;;;4.40;94.20;;;;;;4950712;28;20531;-69
2021/05/07 06:36:23;;;;;;;7.25;4.30;;;4.40;94.10;;;;;;4950093;28;20506;-69
2021/05/07 06:38:49;;;;;;;8.45;4.95;;;4.50;94.40;;;;;;4950511;28;20159;-69
2021/05/07 06:41:15;;;;;;;10.50;4.72;;;4.60;94.50;;;;;;4950648;28;20468;-69
2021/05/07 06:43:40;;;;;;;9.52;4.30;;;4.60;94.20;;;;;;4950643;29;20384;-69
2021/05/07 06:46:06;;;;;;;7.93;4.25;;;4.60;94.00;;;;;;4951232;28;20019;-69
2021/05/07 06:48:32;;;;;;;7.35;4.35;;;4.70;94.00;;;;;;4956717;28;20503;-70
2021/05/07 06:50:58;;;;;;;7.78;4.45;;;4.80;93.80;;;;;;4949617;28;20034;-69
2021/05/07 06:53:23;;;;;;;7.05;4.47;;;4.90;93.80;;;;;;4949809;28;20038;-70
2021/05/07 06:55:49;;;;;;;7.57;4.10;;;4.90;93.60;;;;;;4949060;28;20400;-70
2021/05/07 06:58:15;;;;;;;7.25;4.38;;;4.80;93.10;;;;;;4950040;28;20035;-69
2021/05/07 07:00:41;;;;;;;5.88;3.78;;;4.90;93.40;;;;;;4946727;28;20591;-69
2021/05/07 07:03:06;;;;;;;6.07;3.63;;;4.90;93.20;;;;;;4948444;28;20106;-69
2021/05/07 07:05:32;;;;;;;8.63;4.47;;;5.30;92.90;;;;;;4949565;28;20510;-69
2021/05/07 07:07:57;;;;;;;8.00;3.90;;;5.80;93.20;;;;;;4951909;28;20038;-69
2021/05/07 07:10:23;;;;;;;6.47;3.75;;;6.50;92.10;;;;;;4947315;29;20039;-69
2021/05/07 07:12:49;;;;;;;3.80;2.50;;;6.60;89.70;;;;;;4949484;28;20039;-69
2021/05/07 07:15:15;;;;;;;4.13;2.47;;;6.40;88.80;;;;;;4947645;28;20456;-68
2021/05/07 07:17:41;;;;;;;6.72;2.92;;;6.20;88.50;;;;;;4947998;28;20109;-68
2021/05/07 07:20:07;;;;;;;4.35;2.47;;;6.20;89.10;;;;;;4951213;29;20087;-69
2021/05/07 07:22:33;;;;;;;5.00;2.78;;;6.20;88.60;;;;;;4957330;28;20046;-69
2021/05/07 07:24:59;;;;;;;4.57;2.40;;;6.20;90.00;;;;;;4962942;28;20019;-69
2021/05/07 07:27:24;;;;;;;4.18;2.45;;;6.20;90.20;;;;;;4952421;28;20027;-69
2021/05/07 07:29:50;;;;;;;5.47;2.10;;;6.30;89.60;;;;;;4949239;29;20055;-69
2021/05/07 07:32:19;;;;;;;3.10;2.10;;;6.30;89.00;;;;;;4949401;28;20058;-69
2021/05/07 07:34:44;;;;;;;3.17;1.92;;;6.20;88.50;;;;;;4983586;28;20042;-72
2021/05/07 07:37:10;;;;;;;3.88;1.65;;;6.10;88.50;;;;;;4964596;28;20228;-71
2021/05/07 07:39:37;;;;;;;4.38;2.47;;;6.10;89.10;;;;;;4949244;28;20050;-71
2021/05/07 07:42:03;;;;;;;3.25;2.22;;;6.10;88.40;;;;;;4949433;28;20497;-71
2021/05/07 07:44:29;;;;;;;2.55;1.75;;;6.40;89.20;;;;;;4945914;28;20102;-71
2021/05/07 07:46:55;;;;;;;3.38;1.98;;;6.70;87.90;;;;;;4950217;28;20031;-71
2021/05/07 07:49:20;;;;;;;5.68;2.13;;;6.80;86.50;;;;;;4949370;29;20037;-71
2021/05/07 07:51:46;;;;;;;1.83;1.65;;;6.80;87.30;;;;;;4950851;29;20117;-71
2021/05/07 07:54:12;;;;;;;3.92;1.85;;;7.00;86.70;;;;;;4950899;29;20031;-68
2021/05/07 07:56:38;;;;;;;3.70;1.65;;;6.80;85.40;;;;;;4950262;28;20042;-69
2021/05/07 07:59:04;;;;;;;2.63;1.58;;;6.60;85.70;;;;;;4950535;28;20313;-69
2021/05/07 08:01:30;;;;;;;3.92;1.58;;;6.70;85.90;;;;;;4949230;28;20387;-69
2021/05/07 08:03:55;;;;;;;3.92;1.60;;;6.70;86.30;;;;;;4948276;28;20523;-69
2021/05/07 08:06:22;;;;;;;3.30;1.65;;;6.60;85.20;;;;;;4950809;28;20496;-69
2021/05/07 08:08:49;;;;;;;2.53;1.23;;;6.80;85.80;;;;;;4950673;28;20086;-69
2021/05/07 08:11:16;;;;;;;2.15;1.38;;;7.10;84.00;;;;;;4951139;28;20074;-68
2021/05/07 08:13:42;;;;;;;2.10;1.48;;;7.20;84.40;;;;;;4950205;29;20114;-69
2021/05/07 08:16:08;;;;;;;2.90;1.33;;;7.40;84.60;;;;;;4948326;28;20717;-69
2021/05/07 08:18:33;;;;;;;2.45;1.10;;;7.60;82.80;;;;;;4948938;28;20041;-68
2021/05/07 08:20:59;;;;;;;3.05;1.40;;;7.70;81.60;;;;;;4949501;28;20027;-69
2021/05/07 08:23:24;;;;;;;1.50;1.27;;;8.10;81.10;;;;;;4947592;29;20027;-69
2021/05/07 08:25:50;;;;;;;3.42;1.30;;;7.80;81.20;;;;;;4963728;28;20039;-70
2021/05/07 08:28:16;;;;;;;3.35;1.20;;;7.60;82.30;;;;;;4947623;28;20392;-69
2021/05/07 08:30:41;;;;;;;4.03;1.30;;;7.50;80.60;;;;;;4944661;28;20537;-68
2021/05/07 08:33:08;;;;;;;3.17;1.20;;;8.00;80.20;;;;;;4946324;28;20031;-69
2021/05/07 08:35:34;;;;;;;1.33;0.80;;;8.00;79.60;;;;;;4947826;28;20464;-69
2021/05/07 08:38:00;;;;;;;2.88;1.40;;;8.00;78.50;;;;;;4949644;29;20062;-69
2021/05/07 08:40:26;;;;;;;3.58;1.30;;;8.20;77.90;;;;;;4948126;29;20030;-68
2021/05/07 08:42:54;;;;;;;4.80;1.10;;;8.10;78.20;;;;;;4947847;28;20387;-69
2021/05/07 08:45:20;;;;;;;5.18;1.23;;;7.40;78.30;;;;;;4950015;28;20362;-69
2021/05/07 08:47:45;;;;;;;3.20;1.15;;;7.80;80.30;;;;;;4950183;28;20070;-69
2021/05/07 08:50:11;;;;;;;3.08;1.08;;;8.10;76.70;;;;;;4949453;28;20084;-69
2021/05/07 08:52:37;;;;;;;2.53;1.00;;;7.60;74.20;;;;;;4948768;29;20045;-69
2021/05/07 08:55:04;;;;;;;2.67;0.90;;;8.50;75.70;;;;;;4948634;28;20031;-69
2021/05/07 08:57:30;;;;;;;1.73;1.00;;;8.60;73.80;;;;;;4949402;29;20020;-69
2021/05/07 08:59:56;;;;;;;3.88;1.20;;;9.00;73.70;;;;;;4948582;28;20078;-70
2021/05/07 09:02:28;;;;;;;2.28;1.10;;;9.20;73.60;;;;;;4946540;28;20057;-69
2021/05/07 09:04:56;;;;;;;3.30;1.13;;;9.60;73.50;;;;;;4948251;28;20027;-69
2021/05/07 09:07:26;;;;;;;4.05;1.15;;;9.10;70.80;;;;;;4963684;28;20046;-69
2021/05/07 09:09:57;;;;;;;2.67;1.03;;;8.40;70.90;;;;;;4945500;28;20019;-69
2021/05/07 09:12:24;;;;;;;;;;;8.50;70.70;;;;;;4946217;28;20354;-70
2021/05/07 09:14:50;;;;;;;1.45;1.05;;;9.00;71.10;;;;;;4946676;28;19914;-70
2021/05/07 09:17:23;;;;;;;1.65;1.08;;;9.10;69.70;;;;;;4949034;29;20027;-69
2021/05/07 09:19:50;;;;;;;3.30;1.00;;;9.50;70.60;;;;;;4949400;29;20480;-70
2021/05/07 09:22:26;;;;;;;2.47;1.05;;;9.70;66.50;;;;;;4948989;28;20472;-69
2021/05/07 09:25:04;;;;;;;2.67;1.05;;;9.80;66.40;;;;;;4948824;28;20028;-70
2021/05/07 09:27:30;;;;;;;6.68;1.20;;;9.50;67.40;;;;;;4943074;28;20019;-70
2021/05/07 09:29:56;;;;;;;2.70;1.10;;;9.10;70.10;;;;;;4948609;28;20103;-69
2021/05/07 09:32:33;;;;;;;1.33;0.80;;;9.20;69.90;;;;;;4947028;28;20079;-70
2021/05/07 09:35:13;;;;;;;3.60;1.10;;;9.50;66.80;;;;;;4942715;28;20042;-69
2021/05/07 09:37:40;;;;;;;2.85;1.10;;;10.20;68.20;;;;;;4948514;28;20027;-70
2021/05/07 09:40:20;;;;;;;1.95;1.00;;;9.70;66.40;;;;;;4947939;28;20046;-69
2021/05/07 09:42:46;;;;;;;1.80;0.93;;;9.50;66.50;;;;;;4947875;28;20027;-69
2021/05/07 09:45:26;;;;;;;1.52;0.80;;;9.50;64.90;;;;;;4949913;28;20106;-69
2021/05/07 09:47:53;;;;;;;2.47;0.80;;;9.20;67.40;;;;;;4957331;28;20027;-69
2021/05/07 09:50:30;;;;;;;4.05;0.98;;;8.70;68.80;;;;;;4956393;28;20236;-69
2021/05/07 09:53:06;;;;;;;1.95;1.08;;;9.10;70.70;;;;;;4947421;29;20044;-69
2021/05/07 09:55:32;;;;;;;1.52;1.00;;;9.00;69.90;;;;;;4949417;28;20035;-69
2021/05/07 09:57:58;;;;;;;3.55;1.20;;;9.50;69.80;;;;;;4949716;28;20031;-70
2021/05/07 10:00:23;;;;;;;3.97;1.25;;;10.00;68.00;;;;;;4948467;29;20058;-71
2021/05/07 10:02:49;;;;;;;3.70;1.15;;;10.20;67.00;;;;;;4946497;28;20062;-71
2021/05/07 10:05:16;;;;;;;2.67;1.08;;;9.80;66.00;;;;;;4948072;28;20403;-70
2021/05/07 10:07:41;;;;;;;2.95;1.25;;;9.60;65.40;;;;;;4948731;29;20077;-71
2021/05/07 10:10:08;;;;;;;2.55;0.90;;;9.40;68.00;;;;;;4948335;28;20447;-70
2021/05/07 10:12:36;;;;;;;5.65;1.40;;;8.70;66.10;;;;;;4952727;28;20019;-70
2021/05/07 10:15:03;;;;;;;2.45;1.10;;;8.80;68.40;;;;;;4957190;28;20027;-70
2021/05/07 10:17:29;;;;;;;3.20;1.30;;;8.90;67.10;;;;;;4951523;28;20023;-70
2021/05/07 10:19:55;;;;;;;3.97;1.05;;;8.70;72.90;;;;;;4948308;28;20039;-70
2021/05/07 10:22:26;;;;;;;3.67;1.20;;;8.40;75.80;;;;;;4951082;28;20074;-70
2021/05/07 10:24:52;;;;;;;2.40;1.00;;;8.10;76.40;;;;;;4959177;28;21461;-70
2021/05/07 10:27:21;;;;;;;3.85;1.20;;;7.80;76.10;;;;;;4952077;28;20444;-71
2021/05/07 10:29:57;;;;;;;3.22;1.35;;;7.40;75.80;;;;;;4951839;28;20031;-70
2021/05/07 10:32:34;;;;;;;2.40;0.88;;;7.00;78.20;;;;;;4947610;28;20063;-70
2021/05/07 10:35:00;;;;;;;2.97;1.00;;;6.50;81.40;;;;;;4951265;28;20031;-70
2021/05/07 10:37:39;;;;;;;1.88;1.00;;;6.40;84.30;;;;;;4951505;29;20049;-70
2021/05/07 10:40:07;;;;;;;2.35;1.00;;;6.50;82.90;;;;;;4950449;28;20035;-70
2021/05/07 10:42:33;;;;;;;4.43;1.25;;;6.80;83.70;;;;;;4950947;29;20047;-71
2021/05/07 10:44:59;;;;;;;0.73;0.60;;;6.70;82.90;;;;;;4951109;28;20519;-70
2021/05/07 10:47:36;;;;;;;2.45;1.02;;;6.70;81.90;;;;;;4951474;28;20034;-70
2021/05/07 10:50:16;;;;;;;2.78;0.80;;;6.50;82.90;;;;;;4947255;28;20043;-70
2021/05/07 10:52:42;;;;;;;1.52;0.82;;;6.30;82.70;;;;;;4944946;28;20278;-70
2021/05/07 10:55:08;;;;;;;3.15;0.68;;;6.30;84.30;;;;;;4961828;28;20310;-69
2021/05/07 10:57:38;;;;;;;0.95;0.68;;;6.50;84.90;;;;;;4948925;28;20039;-69
2021/05/07 11:00:12;;;;;;;1.00;0.70;;;6.60;84.30;;;;;;4950799;28;20023;-69
2021/05/07 11:02:56;;;;;;;0.88;0.60;;;6.70;81.80;;;;;;4949775;28;20026;-70
2021/05/07 11:05:49;;;;;;;1.58;0.88;;;6.90;78.80;;;;;;4947653;28;20101;-69
2021/05/07 11:08:15;;;;;;;2.10;0.80;;;7.00;77.60;;;;;;4946682;29;20075;-69
2021/05/07 11:10:42;;;;;;;2.13;0.90;;;6.90;78.30;;;;;;4964210;28;20082;-70
2021/05/07 11:13:09;;;;;;;1.63;0.70;;;7.00;79.60;;;;;;4951488;29;20444;-69
2021/05/07 11:15:35;;;;;;;3.83;1.10;;;7.10;78.90;;;;;;4951725;28;20324;-70
2021/05/07 11:18:05;;;;;;;1.15;0.52;;;7.40;79.50;;;;;;4950495;28;20531;-70
2021/05/07 11:20:39;;;;;;;1.77;0.75;;;7.60;80.30;;;;;;4947457;28;20118;-70
2021/05/07 11:23:10;;;;;;;3.85;0.80;;;8.00;76.70;;;;;;4944381;28;20050;-70
2021/05/07 11:25:36;;;;;;;2.25;0.90;;;8.40;75.60;;;;;;4948896;28;20183;-69
2021/05/07 11:28:14;;;;;;;3.40;0.95;;;8.50;74.80;;;;;;4948704;29;20031;-70
2021/05/07 11:30:57;;;;;;;2.40;0.90;;;9.10;72.40;;;;;;4951065;28;20031;-70
2021/05/07 11:33:25;;;;;;;1.83;1.00;;;9.90;72.70;;;;;;4949016;28;20049;-70
2021/05/07 11:36:06;;;;;;;1.50;0.77;;;9.80;70.30;;;;;;4962795;28;20047;-71
2021/05/07 11:38:32;;;;;;;1.20;0.80;;;10.50;68.40;;;;;;4929004;29;20055;-70
2021/05/07 11:40:58;;;;;;;2.83;1.00;;;11.30;69.60;;;;;;4943701;28;20110;-70
2021/05/07 11:46:07;;;;;;;1.00;0.70;;;11.00;67.00;;;;;;4990369;22;20120;-73
2021/05/07 11:48:34;;;;;;;3.15;1.05;;;10.70;68.90;;;;;;4987840;28;20536;-70
2021/05/07 11:51:09;;;;;;;3.80;0.93;;;10.40;68.70;;;;;;4990111;28;20030;-70
2021/05/07 11:53:35;;;;;;;3.05;1.00;;;10.40;68.30;;;;;;4986476;28;20026;-71
2021/05/07 11:56:02;;;;;;;3.72;0.90;;;10.30;66.20;;;;;;4989210;28;20081;-71
2021/05/07 11:58:36;;;;;;;3.95;0.93;;;11.40;65.50;;;;;;4988623;28;20030;-72
2021/05/07 12:01:06;;;;;;;2.13;0.80;;;11.90;64.80;;;;;;4985092;28;20038;-74
2021/05/07 12:03:42;;;;;;;3.33;0.90;;;11.40;64.50;;;;;;4969809;28;20227;-73
2021/05/07 12:06:21;;;;;;;2.60;0.80;;;11.30;62.90;;;;;;4986184;28;20117;-71
2021/05/07 12:08:48;;;;;;;1.52;1.00;;;11.40;64.60;;;;;;4986762;28;20035;-73
2021/05/07 12:11:15;;;;;;;3.53;1.20;;;10.60;66.50;;;;;;4988209;28;20382;-72
2021/05/07 12:13:42;;;;;;;3.58;1.08;;;10.20;66.90;;;;;;4987339;28;20022;-73
2021/05/07 12:16:08;;;;;;;2.10;0.70;;;11.80;61.10;;;;;;4984285;28;20448;-72
2021/05/07 12:18:38;;;;;;;2.50;0.65;;;11.90;58.20;;;;;;4986692;28;20316;-71
2021/05/07 12:21:04;;;;;;;2.72;0.90;;;11.40;58.70;;;;;;4985286;28;20030;-72
2021/05/07 12:23:40;;;;;;;2.88;0.82;;;11.10;59.40;;;;;;4985031;28;20027;-70
2021/05/07 12:26:06;;;;;;;1.58;0.60;;;10.70;58.10;;;;;;4987033;28;20026;-72
2021/05/07 12:28:32;;;;;;;2.95;0.88;;;10.30;56.60;;;;;;4987143;28;20014;-71
2021/05/07 12:30:58;;;;;;;1.40;0.63;;;10.00;60.50;;;;;;4986947;28;20057;-72
2021/05/07 12:46:46;;;;;;;2.00;0.85;;;8.50;68.50;;;;;;5153180;22;21422;-66
2021/05/07 12:49:12;;;;;;;4.30;0.93;;;8.60;70.70;;;;;;4980995;28;20613;-66
2021/05/07 12:51:38;;;;;;;2.67;1.20;;;8.70;69.40;;;;;;4981664;28;20137;-67
2021/05/07 12:54:03;;;;;;;3.38;0.90;;;8.70;68.70;;;;;;4986065;28;20049;-65
2021/05/07 12:56:29;;;;;;;3.28;0.75;;;8.90;68.70;;;;;;4982415;28;20454;-67
2021/05/07 12:58:56;;;;;;;3.80;0.98;;;8.80;68.30;;;;;;4980948;28;20044;-68
2021/05/07 13:01:22;;;;;;;2.17;0.80;;;9.00;68.90;;;;;;4964813;28;20022;-67
2021/05/07 13:03:48;;;;;;;3.20;1.13;;;9.00;68.70;;;;;;4959906;28;20042;-68
2021/05/07 13:06:13;;;;;;;4.07;0.80;;;8.90;69.20;;;;;;4980679;28;20105;-67
2021/05/07 13:08:39;;;;;;;2.55;1.20;;;8.90;70.50;;;;;;4978690;28;20023;-66
2021/05/07 13:11:05;;;;;;;2.45;0.90;;;8.70;73.30;;;;;;4980257;28;20181;-66